sensor_id;sensor_type;location;lat;lon;timestamp;pressure;altitude;pressure_sealevel;temperature;humidity
50550;BME280;36505;52.512;13.460;2023-03-20T00:00:33;101029.81;;;11.67;75.23
50550;BME280;36505;52.512;13.460;2023-03-20T00:02:59;101033.66;;;11.66;75.27
50550;BME280;36505;52.512;13.460;2023-03-20T00:05:26;101032.00;;;11.65;75.41
50550;BME280;36505;52.512;13.460;2023-03-20T00:07:53;101034.97;;;11.64;75.47
50550;BME280;36505;52.512;13.460;2023-03-20T00:10:20;101034.97;;;11.64;75.54
50550;BME280;36505;52.512;13.460;2023-03-20T00:12:48;101035.22;;;11.62;75.43
50550;BME280;36505;52.512;13.460;2023-03-20T00:15:29;101038.47;;;11.59;75.19
50550;BME280;36505;52.512;13.460;2023-03-20T00:17:56;101033.69;;;11.55;75.31
50550;BME280;36505;52.512;13.460;2023-03-20T00:20:21;101035.34;;;11.56;75.30
50550;BME280;36505;52.512;13.460;2023-03-20T00:22:47;101033.97;;;11.53;75.07
50550;BME280;36505;52.512;13.460;2023-03-20T00:25:15;101036.94;;;11.52;75.26
50550;BME280;36505;52.512;13.460;2023-03-20T00:27:42;101029.19;;;11.48;75.22
50550;BME280;36505;52.512;13.460;2023-03-20T00:30:18;101040.16;;;11.48;75.25
50550;BME280;36505;52.512;13.460;2023-03-20T00:32:45;101038.75;;;11.46;75.46
50550;BME280;36505;52.512;13.460;2023-03-20T00:35:29;101034.56;;;11.43;75.63
50550;BME280;36505;52.512;13.460;2023-03-20T00:37:56;101038.38;;;11.42;75.74
50550;BME280;36505;52.512;13.460;2023-03-20T00:40:29;101029.47;;;11.35;75.74
50550;BME280;36505;52.512;13.460;2023-03-20T00:43:00;101024.22;;;11.34;75.94
50550;BME280;36505;52.512;13.460;2023-03-20T00:45:28;101018.41;;;11.30;75.99
50550;BME280;36505;52.512;13.460;2023-03-20T00:47:55;101021.03;;;11.25;76.34
50550;BME280;36505;52.512;13.460;2023-03-20T00:50:24;101016.25;;;11.21;76.27
50550;BME280;36505;52.512;13.460;2023-03-20T00:52:50;101007.09;;;11.15;76.31
50550;BME280;36505;52.512;13.460;2023-03-20T00:55:17;101012.50;;;11.10;77.07
50550;BME280;36505;52.512;13.460;2023-03-20T00:57:48;101002.63;;;10.97;76.64
50550;BME280;36505;52.512;13.460;2023-03-20T01:00:30;101016.06;;;10.99;77.04
50550;BME280;36505;52.512;13.460;2023-03-20T01:02:58;101021.44;;;10.94;77.31
50550;BME280;36505;52.512;13.460;2023-03-20T01:05:26;101011.22;;;10.89;77.68
50550;BME280;36505;52.512;13.460;2023-03-20T01:07:53;101019.88;;;10.86;78.12
50550;BME280;36505;52.512;13.460;2023-03-20T01:10:19;101015.59;;;10.79;78.36
50550;BME280;36505;52.512;13.460;2023-03-20T01:12:45;101024.31;;;10.76;78.35
50550;BME280;36505;52.512;13.460;2023-03-20T01:15:21;101025.84;;;10.72;78.92
50550;BME280;36505;52.512;13.460;2023-03-20T01:17:47;101021.31;;;10.65;79.16
50550;BME280;36505;52.512;13.460;2023-03-20T01:20:21;101019.09;;;10.62;79.31
50550;BME280;36505;52.512;13.460;2023-03-20T01:22:47;101018.97;;;10.57;79.34
50550;BME280;36505;52.512;13.460;2023-03-20T01:25:15;101000.00;;;10.44;79.34
50550;BME280;36505;52.512;13.460;2023-03-20T01:27:44;101025.63;;;10.50;79.37
50550;BME280;36505;52.512;13.460;2023-03-20T01:30:26;101007.66;;;10.42;79.57
50550;BME280;36505;52.512;13.460;2023-03-20T01:32:52;101021.09;;;10.44;79.75
50550;BME280;36505;52.512;13.460;2023-03-20T01:35:23;101031.56;;;10.47;79.94
50550;BME280;36505;52.512;13.460;2023-03-20T01:37:50;101025.75;;;10.43;79.91
50550;BME280;36505;52.512;13.460;2023-03-20T01:42:47;101033.25;;;10.48;80.23
50550;BME280;36505;52.512;13.460;2023-03-20T01:45:19;101026.69;;;10.49;80.20
50550;BME280;36505;52.512;13.460;2023-03-20T01:47:46;101026.69;;;10.49;80.38
50550;BME280;36505;52.512;13.460;2023-03-20T01:50:30;101034.91;;;10.49;80.38
50550;BME280;36505;52.512;13.460;2023-03-20T01:53:07;101029.44;;;10.49;80.31
50550;BME280;36505;52.512;13.460;2023-03-20T01:55:35;101023.13;;;10.48;80.45
50550;BME280;36505;52.512;13.460;2023-03-20T01:58:03;101023.84;;;10.44;80.26
50550;BME280;36505;52.512;13.460;2023-03-20T02:00:30;101024.41;;;10.46;80.38
50550;BME280;36505;52.512;13.460;2023-03-20T02:02:56;101019.66;;;10.41;80.82
50550;BME280;36505;52.512;13.460;2023-03-20T02:05:23;101031.44;;;10.42;81.00
50550;BME280;36505;52.512;13.460;2023-03-20T02:07:55;101028.94;;;10.40;81.43
50550;BME280;36505;52.512;13.460;2023-03-20T02:10:23;101038.22;;;10.39;81.54
50550;BME280;36505;52.512;13.460;2023-03-20T02:12:50;101036.19;;;10.35;81.45
50550;BME280;36505;52.512;13.460;2023-03-20T02:15:16;101040.59;;;10.36;81.37
50550;BME280;36505;52.512;13.460;2023-03-20T02:17:42;101034.75;;;10.32;81.29
50550;BME280;36505;52.512;13.460;2023-03-20T02:31:09;101027.59;;;10.31;81.29
50550;BME280;36505;52.512;13.460;2023-03-20T02:36:47;101035.38;;;10.34;81.53
50550;BME280;36505;52.512;13.460;2023-03-20T02:41:53;101031.56;;;10.35;81.42
50550;BME280;36505;52.512;13.460;2023-03-20T03:01:33;101047.97;;;10.35;81.75
50550;BME280;36505;52.512;13.460;2023-03-20T03:04:03;101040.38;;;10.37;81.50
50550;BME280;36505;52.512;13.460;2023-03-20T03:06:34;101040.94;;;10.39;81.75
50550;BME280;36505;52.512;13.460;2023-03-20T03:09:09;101037.75;;;10.42;81.59
50550;BME280;36505;52.512;13.460;2023-03-20T03:11:41;101039.44;;;10.43;81.69
50550;BME280;36505;52.512;13.460;2023-03-20T03:14:14;101033.59;;;10.40;81.44
50550;BME280;36505;52.512;13.460;2023-03-20T03:16:43;101037.53;;;10.44;81.54
50550;BME280;36505;52.512;13.460;2023-03-20T03:19:20;101029.88;;;10.46;81.29
50550;BME280;36505;52.512;13.460;2023-03-20T03:21:48;101035.97;;;10.48;81.69
50550;BME280;36505;52.512;13.460;2023-03-20T03:24:36;101034.06;;;10.48;81.66
50550;BME280;36505;52.512;13.460;2023-03-20T03:27:09;101030.13;;;10.44;81.50
50550;BME280;36505;52.512;13.460;2023-03-20T03:29:38;101036.44;;;10.45;81.64
50550;BME280;36505;52.512;13.460;2023-03-20T03:32:06;101040.16;;;10.50;81.49
50550;BME280;36505;52.512;13.460;2023-03-20T03:34:32;101046.44;;;10.51;81.53
50550;BME280;36505;52.512;13.460;2023-03-20T03:37:06;101048.09;;;10.52;81.55
50550;BME280;36505;52.512;13.460;2023-03-20T03:45:30;101052.75;;;10.51;81.69
50550;BME280;36505;52.512;13.460;2023-03-20T03:50:31;101054.53;;;10.46;82.16
50550;BME280;36505;52.512;13.460;2023-03-20T03:53:02;101050.63;;;10.42;82.39
50550;BME280;36505;52.512;13.460;2023-03-20T03:55:37;101050.84;;;10.40;82.18
50550;BME280;36505;52.512;13.460;2023-03-20T03:58:09;101046.19;;;10.41;82.08
50550;BME280;36505;52.512;13.460;2023-03-20T04:00:36;101046.19;;;10.41;82.13
50550;BME280;36505;52.512;13.460;2023-03-20T04:03:06;101051.69;;;10.41;82.26
50550;BME280;36505;52.512;13.460;2023-03-20T04:05:35;101049.16;;;10.39;82.26
50550;BME280;36505;52.512;13.460;2023-03-20T04:08:05;101044.19;;;10.36;82.23
50550;BME280;36505;52.512;13.460;2023-03-20T04:10:30;101055.13;;;10.36;82.59
50550;BME280;36505;52.512;13.460;2023-03-20T04:12:56;101050.94;;;10.34;82.39
50550;BME280;36505;52.512;13.460;2023-03-20T04:15:21;101052.63;;;10.35;82.59
50550;BME280;36505;52.512;13.460;2023-03-20T04:17:47;101049.50;;;10.31;82.63
50550;BME280;36505;52.512;13.460;2023-03-20T04:20:13;101062.75;;;10.34;82.58
50550;BME280;36505;52.512;13.460;2023-03-20T04:22:39;101057.38;;;10.27;82.75
50550;BME280;36505;52.512;13.460;2023-03-20T04:25:06;101070.56;;;10.30;82.94
50550;BME280;36505;52.512;13.460;2023-03-20T04:27:31;101077.38;;;10.28;83.03
50550;BME280;36505;52.512;13.460;2023-03-20T04:29:57;101072.72;;;10.28;83.12
50550;BME280;36505;52.512;13.460;2023-03-20T04:32:23;101074.00;;;10.26;82.90
50550;BME280;36505;52.512;13.460;2023-03-20T04:34:48;101083.06;;;10.26;82.98
50550;BME280;36505;52.512;13.460;2023-03-20T04:37:14;101071.50;;;10.24;83.21
50550;BME280;36505;52.512;13.460;2023-03-20T04:39:39;101079.13;;;10.22;83.34
50550;BME280;36505;52.512;13.460;2023-03-20T04:42:06;101074.97;;;10.20;83.63
50550;BME280;36505;52.512;13.460;2023-03-20T04:44:32;101071.16;;;10.21;83.71
50550;BME280;36505;52.512;13.460;2023-03-20T04:46:58;101067.59;;;10.20;83.81
50550;BME280;36505;52.512;13.460;2023-03-20T04:49:24;101066.13;;;10.18;83.75
50550;BME280;36505;52.512;13.460;2023-03-20T04:51:49;101070.94;;;10.22;84.33
50550;BME280;36505;52.512;13.460;2023-03-20T04:54:15;101071.75;;;10.23;84.11
50550;BME280;36505;52.512;13.460;2023-03-20T04:56:40;101070.66;;;10.24;83.87
50550;BME280;36505;52.512;13.460;2023-03-20T04:59:05;101077.25;;;10.23;84.15
50550;BME280;36505;52.512;13.460;2023-03-20T05:01:31;101076.84;;;10.19;84.29
50550;BME280;36505;52.512;13.460;2023-03-20T05:03:56;101079.81;;;10.18;84.23
50550;BME280;36505;52.512;13.460;2023-03-20T05:06:28;101074.34;;;10.18;84.39
50550;BME280;36505;52.512;13.460;2023-03-20T05:08:56;101080.66;;;10.18;84.58
50550;BME280;36505;52.512;13.460;2023-03-20T05:11:23;101080.88;;;10.17;84.55
50550;BME280;36505;52.512;13.460;2023-03-20T05:13:49;101081.50;;;10.19;84.51
50550;BME280;36505;52.512;13.460;2023-03-20T05:16:14;101082.56;;;10.18;84.61
50550;BME280;36505;52.512;13.460;2023-03-20T05:18:40;101077.53;;;10.15;84.89
50550;BME280;36505;52.512;13.460;2023-03-20T05:21:06;101084.00;;;10.20;84.83
50550;BME280;36505;52.512;13.460;2023-03-20T05:23:31;101081.25;;;10.20;84.96
50550;BME280;36505;52.512;13.460;2023-03-20T05:25:56;101086.50;;;10.22;84.80
50550;BME280;36505;52.512;13.460;2023-03-20T05:28:22;101082.72;;;10.23;85.00
50550;BME280;36505;52.512;13.460;2023-03-20T05:30:47;101081.88;;;10.22;85.07
50550;BME280;36505;52.512;13.460;2023-03-20T05:33:13;101080.81;;;10.23;85.13
50550;BME280;36505;52.512;13.460;2023-03-20T05:35:38;101087.34;;;10.22;85.22
50550;BME280;36505;52.512;13.460;2023-03-20T05:38:04;101081.03;;;10.22;85.19
50550;BME280;36505;52.512;13.460;2023-03-20T05:40:29;101086.03;;;10.25;85.14
50550;BME280;36505;52.512;13.460;2023-03-20T05:42:55;101083.91;;;10.27;84.88
50550;BME280;36505;52.512;13.460;2023-03-20T05:45:20;101086.19;;;10.30;84.84
50550;BME280;36505;52.512;13.460;2023-03-20T05:47:46;101084.50;;;10.29;85.00
50550;BME280;36505;52.512;13.460;2023-03-20T05:50:11;101080.72;;;10.30;85.00
50550;BME280;36505;52.512;13.460;2023-03-20T05:52:37;101079.38;;;10.33;85.02
50550;BME280;36505;52.512;13.460;2023-03-20T05:55:03;101077.47;;;10.33;85.33
50550;BME280;36505;52.512;13.460;2023-03-20T05:57:28;101082.13;;;10.33;85.59
50550;BME280;36505;52.512;13.460;2023-03-20T05:59:54;101087.38;;;10.34;85.48
50550;BME280;36505;52.512;13.460;2023-03-20T06:02:20;101081.91;;;10.34;85.51
50550;BME280;36505;52.512;13.460;2023-03-20T06:04:45;101082.50;;;10.36;85.61
50550;BME280;36505;52.512;13.460;2023-03-20T06:07:10;101086.66;;;10.39;85.42
50550;BME280;36505;52.512;13.460;2023-03-20T06:09:36;101093.81;;;10.40;85.65
50550;BME280;36505;52.512;13.460;2023-03-20T06:12:01;101092.13;;;10.39;85.59
50550;BME280;36505;52.512;13.460;2023-03-20T06:14:27;101094.63;;;10.40;85.32
50550;BME280;36505;52.512;13.460;2023-03-20T06:16:52;101101.19;;;10.39;85.38
50550;BME280;36505;52.512;13.460;2023-03-20T06:19:19;101113.09;;;10.45;85.41
50550;BME280;36505;52.512;13.460;2023-03-20T06:21:44;101120.25;;;10.46;85.45
50550;BME280;36505;52.512;13.460;2023-03-20T06:24:10;101118.00;;;10.43;85.41
50550;BME280;36505;52.512;13.460;2023-03-20T06:26:36;101123.81;;;10.46;85.59
50550;BME280;36505;52.512;13.460;2023-03-20T06:29:01;101131.56;;;10.49;85.42
50550;BME280;36505;52.512;13.460;2023-03-20T06:31:27;101135.38;;;10.48;85.51
50550;BME280;36505;52.512;13.460;2023-03-20T06:33:52;101125.94;;;10.44;85.27
50550;BME280;36505;52.512;13.460;2023-03-20T06:36:18;101141.69;;;10.49;85.14
50550;BME280;36505;52.512;13.460;2023-03-20T06:38:43;101141.56;;;10.44;85.11
50550;BME280;36505;52.512;13.460;2023-03-20T06:41:09;101150.22;;;10.41;85.14
50550;BME280;36505;52.512;13.460;2023-03-20T06:43:34;101150.94;;;10.36;85.04
50550;BME280;36505;52.512;13.460;2023-03-20T06:46:00;101149.13;;;10.30;85.02
50550;BME280;36505;52.512;13.460;2023-03-20T06:48:25;101156.34;;;10.24;85.26
50550;BME280;36505;52.512;13.460;2023-03-20T06:50:51;101156.00;;;10.21;85.41
50550;BME280;36505;52.512;13.460;2023-03-20T06:53:17;101164.03;;;10.16;85.63
50550;BME280;36505;52.512;13.460;2023-03-20T06:55:47;101168.69;;;10.15;85.64
50550;BME280;36505;52.512;13.460;2023-03-20T06:58:13;101160.47;;;10.15;85.80
50550;BME280;36505;52.512;13.460;2023-03-20T07:00:38;101160.69;;;10.14;85.56
50550;BME280;36505;52.512;13.460;2023-03-20T07:03:04;101159.00;;;10.13;85.74
50550;BME280;36505;52.512;13.460;2023-03-20T07:05:29;101168.06;;;10.13;85.74
50550;BME280;36505;52.512;13.460;2023-03-20T07:07:55;101161.22;;;10.04;85.75
50550;BME280;36505;52.512;13.460;2023-03-20T07:10:20;101170.44;;;10.10;85.61
50550;BME280;36505;52.512;13.460;2023-03-20T07:12:46;101175.31;;;10.08;85.62
50550;BME280;36505;52.512;13.460;2023-03-20T07:15:12;101178.47;;;10.05;85.45
50550;BME280;36505;52.512;13.460;2023-03-20T07:17:37;101178.47;;;10.05;85.57
50550;BME280;36505;52.512;13.460;2023-03-20T07:20:03;101186.69;;;10.05;85.30
50550;BME280;36505;52.512;13.460;2023-03-20T07:22:29;101197.06;;;10.03;85.29
50550;BME280;36505;52.512;13.460;2023-03-20T07:24:56;101187.38;;;10.00;85.00
50550;BME280;36505;52.512;13.460;2023-03-20T07:27:22;101189.50;;;9.98;84.95
50550;BME280;36505;52.512;13.460;2023-03-20T07:29:47;101181.53;;;9.97;85.09
50550;BME280;36505;52.512;13.460;2023-03-20T07:32:13;101183.19;;;9.98;84.84
50550;BME280;36505;52.512;13.460;2023-03-20T07:34:38;101185.19;;;9.90;85.02
50550;BME280;36505;52.512;13.460;2023-03-20T07:37:04;101197.81;;;9.91;85.00
50550;BME280;36505;52.512;13.460;2023-03-20T07:39:29;101194.22;;;9.91;85.26
50550;BME280;36505;52.512;13.460;2023-03-20T07:41:55;101185.66;;;9.87;85.17
50550;BME280;36505;52.512;13.460;2023-03-20T07:44:20;101203.88;;;9.94;85.53
50550;BME280;36505;52.512;13.460;2023-03-20T07:46:46;101206.84;;;9.92;84.96
50550;BME280;36505;52.512;13.460;2023-03-20T07:49:13;101204.34;;;9.90;84.93
50550;BME280;36505;52.512;13.460;2023-03-20T07:51:39;101209.44;;;9.87;85.17
50550;BME280;36505;52.512;13.460;2023-03-20T07:54:04;101207.75;;;9.86;85.28
50550;BME280;36505;52.512;13.460;2023-03-20T07:56:30;101205.88;;;9.86;85.37
50550;BME280;36505;52.512;13.460;2023-03-20T07:58:56;101206.00;;;9.91;85.24
50550;BME280;36505;52.512;13.460;2023-03-20T08:01:21;101200.09;;;9.95;85.27
50550;BME280;36505;52.512;13.460;2023-03-20T08:03:47;101211.41;;;9.98;84.83
50550;BME280;36505;52.512;13.460;2023-03-20T08:06:12;101204.94;;;9.93;84.95
50550;BME280;36505;52.512;13.460;2023-03-20T08:08:37;101214.34;;;9.97;84.93
50550;BME280;36505;52.512;13.460;2023-03-20T08:11:03;101209.28;;;10.00;84.52
50550;BME280;36505;52.512;13.460;2023-03-20T08:13:28;101204.91;;;10.11;83.80
50550;BME280;36505;52.512;13.460;2023-03-20T08:15:54;101196.03;;;10.15;83.50
50550;BME280;36505;52.512;13.460;2023-03-20T08:18:19;101189.94;;;10.32;83.02
50550;BME280;36505;52.512;13.460;2023-03-20T08:20:46;101212.66;;;10.50;82.42
50550;BME280;36505;52.512;13.460;2023-03-20T08:23:12;101224.34;;;10.57;82.15
50550;BME280;36505;52.512;13.460;2023-03-20T08:25:37;101218.88;;;10.57;81.53
50550;BME280;36505;52.512;13.460;2023-03-20T08:28:03;101224.09;;;10.59;81.36
50550;BME280;36505;52.512;13.460;2023-03-20T08:30:28;101224.34;;;10.57;81.26
50550;BME280;36505;52.512;13.460;2023-03-20T08:32:54;101233.38;;;10.58;81.14
50550;BME280;36505;52.512;13.460;2023-03-20T08:35:20;101234.69;;;10.55;81.13
50550;BME280;36505;52.512;13.460;2023-03-20T08:37:46;101240.03;;;10.50;80.97
50550;BME280;36505;52.512;13.460;2023-03-20T08:40:11;101235.13;;;10.52;81.09
50550;BME280;36505;52.512;13.460;2023-03-20T08:42:37;101235.44;;;10.62;80.46
50550;BME280;36505;52.512;13.460;2023-03-20T08:45:03;101239.97;;;10.68;80.22
50550;BME280;36505;52.512;13.460;2023-03-20T08:47:28;101231.75;;;10.68;79.86
50550;BME280;36505;52.512;13.460;2023-03-20T08:49:54;101231.09;;;10.85;79.29
50550;BME280;36505;52.512;13.460;2023-03-20T08:52:20;101230.34;;;11.31;78.24
50550;BME280;36505;52.512;13.460;2023-03-20T08:54:45;101206.00;;;11.81;76.12
50550;BME280;36505;52.512;13.460;2023-03-20T08:57:10;101221.38;;;13.24;71.36
50550;BME280;36505;52.512;13.460;2023-03-20T08:59:36;101232.03;;;14.14;66.33
50550;BME280;36505;52.512;13.460;2023-03-20T09:02:02;101224.03;;;14.83;63.53
50550;BME280;36505;52.512;13.460;2023-03-20T09:04:27;101222.25;;;15.67;61.87
50550;BME280;36505;52.512;13.460;2023-03-20T09:06:53;101223.38;;;15.34;61.46
50550;BME280;36505;52.512;13.460;2023-03-20T09:09:19;101226.16;;;15.34;61.02
50550;BME280;36505;52.512;13.460;2023-03-20T09:11:45;101225.84;;;15.31;59.52
50550;BME280;36505;52.512;13.460;2023-03-20T09:14:11;101218.19;;;15.06;59.93
50550;BME280;36505;52.512;13.460;2023-03-20T09:16:36;101228.59;;;14.99;60.86
50550;BME280;36505;52.512;13.460;2023-03-20T09:19:02;101230.66;;;15.14;60.53
50550;BME280;36505;52.512;13.460;2023-03-20T09:21:28;101227.78;;;14.98;60.32
50550;BME280;36505;52.512;13.460;2023-03-20T09:23:53;101224.03;;;14.83;59.97
50550;BME280;36505;52.512;13.460;2023-03-20T09:26:18;101227.66;;;14.88;60.08
50550;BME280;36505;52.512;13.460;2023-03-20T09:28:44;101225.06;;;14.77;59.55
50550;BME280;36505;52.512;13.460;2023-03-20T09:31:09;101229.50;;;14.51;60.10
50550;BME280;36505;52.512;13.460;2023-03-20T09:33:36;101226.28;;;14.37;61.64
50550;BME280;36505;52.512;13.460;2023-03-20T09:36:01;101231.78;;;14.37;60.88
50550;BME280;36505;52.512;13.460;2023-03-20T09:38:27;101236.91;;;14.29;61.03
50550;BME280;36505;52.512;13.460;2023-03-20T09:40:55;101225.50;;;14.20;61.33
50550;BME280;36505;52.512;13.460;2023-03-20T09:53:47;101223.59;;;13.99;60.43
50550;BME280;36505;52.512;13.460;2023-03-20T09:56:15;101230.19;;;13.98;60.78
50550;BME280;36505;52.512;13.460;2023-03-20T09:58:42;101235.25;;;13.84;61.15
50550;BME280;36505;52.512;13.460;2023-03-20T10:01:13;101229.63;;;13.79;61.55
50550;BME280;36505;52.512;13.460;2023-03-20T10:03:49;101228.81;;;13.78;61.75
50550;BME280;36505;52.512;13.460;2023-03-20T10:06:16;101228.81;;;13.78;61.75
50550;BME280;36505;52.512;13.460;2023-03-20T10:08:42;101228.81;;;13.78;61.95
50550;BME280;36505;52.512;13.460;2023-03-20T10:19:27;101237.22;;;13.33;62.68
50550;BME280;36505;52.512;13.460;2023-03-20T10:24:50;101240.91;;;13.22;61.96
50550;BME280;36505;52.512;13.460;2023-03-20T10:27:30;101241.91;;;13.16;61.89
50550;BME280;36505;52.512;13.460;2023-03-20T10:30:15;101233.66;;;13.16;61.77
50550;BME280;36505;52.512;13.460;2023-03-20T10:32:50;101234.97;;;13.14;61.76
50550;BME280;36505;52.512;13.460;2023-03-20T10:35:27;101233.88;;;13.15;61.59
50550;BME280;36505;52.512;13.460;2023-03-20T10:40:41;101229.16;;;12.98;61.48
50550;BME280;36505;52.512;13.460;2023-03-20T10:43:14;101222.44;;;12.89;62.02
50550;BME280;36505;52.512;13.460;2023-03-20T10:48:19;101226.97;;;12.84;62.69
50550;BME280;36505;52.512;13.460;2023-03-20T10:50:51;101223.41;;;12.83;62.56
50550;BME280;36505;52.512;13.460;2023-03-20T10:53:38;101225.06;;;12.84;62.23
50550;BME280;36505;52.512;13.460;2023-03-20T10:56:28;101219.69;;;12.89;62.18
50550;BME280;36505;52.512;13.460;2023-03-20T10:59:03;101221.69;;;12.94;62.46
50550;BME280;36505;52.512;13.460;2023-03-20T11:01:31;101221.16;;;12.97;61.92
50550;BME280;36505;52.512;13.460;2023-03-20T11:03:56;101227.66;;;12.91;62.00
50550;BME280;36505;52.512;13.460;2023-03-20T11:06:30;101221.00;;;12.87;61.87
50550;BME280;36505;52.512;13.460;2023-03-20T11:09:09;101229.66;;;12.79;62.18
50550;BME280;36505;52.512;13.460;2023-03-20T11:11:37;101223.22;;;12.73;62.59
50550;BME280;36505;52.512;13.460;2023-03-20T11:14:18;101217.13;;;12.71;62.61
50550;BME280;36505;52.512;13.460;2023-03-20T11:16:54;101215.47;;;12.70;62.59
50550;BME280;36505;52.512;13.460;2023-03-20T11:19:22;101219.41;;;12.74;62.81
50550;BME280;36505;52.512;13.460;2023-03-20T11:21:50;101215.16;;;12.83;62.44
50550;BME280;36505;52.512;13.460;2023-03-20T11:24:26;101209.66;;;12.83;62.37
50550;BME280;36505;52.512;13.460;2023-03-20T11:26:52;101221.09;;;12.92;62.19
50550;BME280;36505;52.512;13.460;2023-03-20T11:29:45;101217.84;;;12.95;62.24
50550;BME280;36505;52.512;13.460;2023-03-20T11:32:29;101211.84;;;12.98;61.97
50550;BME280;36505;52.512;13.460;2023-03-20T11:34:55;101215.78;;;13.02;62.39
50550;BME280;36505;52.512;13.460;2023-03-20T11:37:27;101207.25;;;13.03;61.79
50550;BME280;36505;52.512;13.460;2023-03-20T11:42:26;101207.78;;;13.17;61.65
50550;BME280;36505;52.512;13.460;2023-03-20T11:44:57;101215.88;;;13.24;61.88
50550;BME280;36505;52.512;13.460;2023-03-20T11:47:25;101209.88;;;13.27;61.56
50550;BME280;36505;52.512;13.460;2023-03-20T11:49:57;101200.69;;;13.38;61.20
50550;BME280;36505;52.512;13.460;2023-03-20T11:52:34;101198.69;;;13.50;60.69
50550;BME280;36505;52.512;13.460;2023-03-20T11:55:04;101187.88;;;13.43;60.44
50550;BME280;36505;52.512;13.460;2023-03-20T11:57:39;101180.34;;;13.39;60.70
50550;BME280;36505;52.512;13.460;2023-03-20T12:00:25;101186.50;;;13.46;60.21
50550;BME280;36505;52.512;13.460;2023-03-20T12:02:53;101191.69;;;13.42;60.13
50550;BME280;36505;52.512;13.460;2023-03-20T12:05:35;101180.03;;;13.35;60.43
50550;BME280;36505;52.512;13.460;2023-03-20T12:08:11;101182.19;;;13.33;60.21
50550;BME280;36505;52.512;13.460;2023-03-20T12:10:40;101176.16;;;13.15;60.72
50550;BME280;36505;52.512;13.460;2023-03-20T12:13:16;101171.78;;;13.02;60.75
50550;BME280;36505;52.512;13.460;2023-03-20T12:15:46;101184.03;;;12.94;61.01
50550;BME280;36505;52.512;13.460;2023-03-20T12:18:20;101183.03;;;13.00;61.33
50550;BME280;36505;52.512;13.460;2023-03-20T12:21:09;101169.88;;;13.02;60.50
50550;BME280;36505;52.512;13.460;2023-03-20T12:23:44;101172.19;;;12.94;61.30
50550;BME280;36505;52.512;13.460;2023-03-20T12:31:32;101160.69;;;12.97;61.11
50550;BME280;36505;52.512;13.460;2023-03-20T12:34:02;101157.44;;;13.00;61.14
50550;BME280;36505;52.512;13.460;2023-03-20T12:36:41;101165.69;;;13.00;61.04
50550;BME280;36505;52.512;13.460;2023-03-20T12:39:13;101158.88;;;13.02;61.03
50550;BME280;36505;52.512;13.460;2023-03-20T12:44:43;101157.16;;;13.13;59.52
50550;BME280;36505;52.512;13.460;2023-03-20T12:47:21;101167.19;;;13.07;60.14
50550;BME280;36505;52.512;13.460;2023-03-20T12:52:48;101157.63;;;12.93;60.01
50550;BME280;36505;52.512;13.460;2023-03-20T12:55:26;101158.22;;;12.95;60.22
50550;BME280;36505;52.512;13.460;2023-03-20T13:01:01;101152.97;;;12.94;60.24
50550;BME280;36505;52.512;13.460;2023-03-20T13:17:59;101145.38;;;13.01;60.62
50550;BME280;36505;52.512;13.460;2023-03-20T13:20:40;101148.88;;;12.96;60.97
50550;BME280;36505;52.512;13.460;2023-03-20T13:23:36;101142.28;;;12.97;61.04
50550;BME280;36505;52.512;13.460;2023-03-20T13:26:17;101144.47;;;12.95;61.03
50550;BME280;36505;52.512;13.460;2023-03-20T13:29:00;101123.72;;;12.88;60.91
50550;BME280;36505;52.512;13.460;2023-03-20T13:37:31;101125.38;;;13.05;61.11
50550;BME280;36505;52.512;13.460;2023-03-20T13:42:30;101131.13;;;13.04;60.75
50550;BME280;36505;52.512;13.460;2023-03-20T13:45:04;101129.38;;;12.98;61.38
50550;BME280;36505;52.512;13.460;2023-03-20T13:47:31;101124.72;;;12.98;61.66
50550;BME280;36505;52.512;13.460;2023-03-20T13:53:09;101132.41;;;12.96;61.94
50550;BME280;36505;52.512;13.460;2023-03-20T14:01:22;101123.03;;;12.97;61.81
50550;BME280;36505;52.512;13.460;2023-03-20T14:03:51;101134.97;;;12.86;62.06
50550;BME280;36505;52.512;13.460;2023-03-20T14:08:51;101125.97;;;12.74;62.48
50550;BME280;36505;52.512;13.460;2023-03-20T14:14:13;101126.53;;;12.76;62.64
50550;BME280;36505;52.512;13.460;2023-03-20T14:16:39;101125.38;;;12.72;62.58
50550;BME280;36505;52.512;13.460;2023-03-20T14:19:20;101119.22;;;12.65;62.79
50550;BME280;36505;52.512;13.460;2023-03-20T14:21:46;101126.53;;;12.59;63.18
50550;BME280;36505;52.512;13.460;2023-03-20T14:24:14;101118.06;;;12.61;63.05
50550;BME280;36505;52.512;13.460;2023-03-20T14:26:41;101117.78;;;12.62;63.08
50550;BME280;36505;52.512;13.460;2023-03-20T14:31:36;101111.72;;;12.60;63.66
50550;BME280;36505;52.512;13.460;2023-03-20T14:50:27;101103.94;;;12.24;64.75
50550;BME280;36505;52.512;13.460;2023-03-20T14:53:08;101109.34;;;12.19;64.81
50550;BME280;36505;52.512;13.460;2023-03-20T14:56:05;101106.84;;;12.17;64.98
50550;BME280;36505;52.512;13.460;2023-03-20T15:01:08;101095.78;;;12.12;65.59
50550;BME280;36505;52.512;13.460;2023-03-20T15:03:39;101107.47;;;12.08;65.89
50550;BME280;36505;52.512;13.460;2023-03-20T15:06:06;101092.34;;;12.05;66.25
50550;BME280;36505;52.512;13.460;2023-03-20T15:08:44;101091.75;;;12.03;66.38
50550;BME280;36505;52.512;13.460;2023-03-20T15:11:13;101095.84;;;12.01;66.45
50550;BME280;36505;52.512;13.460;2023-03-20T15:13:40;101095.94;;;11.94;66.65
50550;BME280;36505;52.512;13.460;2023-03-20T15:16:10;101096.47;;;11.91;66.89